createdAt,value
2019-02-28T00:01:11.683Z,23.33
2019-02-28T00:03:12.550Z,22.37
2019-02-28T00:05:14.218Z,23.27
2019-02-28T00:07:17.909Z,22.43
2019-02-28T00:09:19.478Z,24.10
2019-02-28T00:11:21.197Z,28.57
2019-02-28T00:13:23.133Z,25.20
2019-02-28T00:15:24.809Z,20.50
2019-02-28T00:17:26.537Z,27.10
2019-02-28T00:19:28.210Z,20.50
2019-02-28T00:21:29.881Z,26.90
2019-02-28T00:23:31.888Z,19.43
2019-02-28T00:25:37.770Z,24.97
2019-02-28T00:27:37.143Z,26.60
2019-02-28T00:29:38.849Z,19.77
2019-02-28T00:31:40.791Z,35.23
2019-02-28T00:33:42.453Z,24.20
2019-02-28T00:35:44.781Z,28.83
2019-02-28T00:37:47.197Z,29.43
2019-02-28T00:39:49.166Z,26.13
2019-02-28T00:41:50.845Z,27.03
2019-02-28T00:43:52.514Z,23.10
2019-02-28T00:45:54.186Z,27.43
2019-02-28T00:47:55.865Z,27.00
2019-02-28T00:49:57.871Z,34.87
2019-02-28T00:52:01.533Z,28.30
2019-02-28T00:54:03.138Z,39.40
2019-02-28T00:56:04.802Z,26.70
2019-02-28T00:58:06.509Z,26.67
2019-02-28T01:00:08.670Z,32.60
2019-02-28T01:02:10.358Z,27.00
2019-02-28T01:04:12.049Z,26.30
2019-02-28T01:06:13.737Z,28.93
2019-02-28T01:08:15.686Z,30.77
2019-02-28T01:10:17.354Z,30.03
2019-02-28T01:12:19.989Z,29.70
2019-02-28T01:14:21.937Z,33.10
2019-02-28T01:16:23.634Z,31.87
2019-02-28T01:18:25.350Z,35.53
2019-02-28T01:20:27.359Z,36.33
2019-02-28T01:22:29.041Z,32.80
2019-02-28T01:24:34.536Z,42.27
2019-02-28T01:26:34.628Z,32.27
2019-02-28T01:28:36.297Z,35.20
2019-02-28T01:30:40.558Z,32.70
2019-02-28T01:32:41.557Z,34.27
2019-02-28T01:34:43.229Z,34.03
2019-02-28T01:36:45.947Z,39.30
2019-02-28T01:38:48.790Z,40.10
2019-02-28T01:40:50.553Z,40.83
2019-02-28T01:42:54.833Z,44.60
2019-02-28T01:44:56.092Z,50.43
2019-02-28T01:46:58.062Z,45.43
2019-02-28T01:48:59.734Z,47.27
2019-02-28T01:51:01.729Z,45.47
2019-02-28T01:53:03.800Z,46.27
2019-02-28T01:55:06.206Z,53.47
2019-02-28T01:57:09.006Z,42.20
2019-02-28T01:59:11.795Z,42.77
2019-02-28T02:01:13.468Z,47.87
2019-02-28T02:03:15.172Z,52.73
2019-02-28T02:05:17.962Z,54.60
2019-02-28T02:07:20.193Z,46.57
2019-02-28T02:09:21.862Z,57.40
2019-02-28T02:11:26.689Z,56.40
2019-02-28T02:13:28.014Z,50.37
2019-02-28T02:15:29.673Z,65.47
2019-02-28T02:17:32.231Z,61.10
2019-02-28T02:19:34.953Z,59.30
2019-02-28T02:21:36.654Z,68.67
2019-02-28T02:23:38.361Z,57.67
2019-02-28T02:25:40.029Z,57.60
2019-02-28T02:27:41.741Z,58.73
2019-02-28T02:29:43.414Z,69.07
2019-02-28T02:31:45.090Z,66.30
2019-02-28T02:33:51.101Z,63.10
2019-02-28T02:35:50.354Z,66.87
2019-02-28T02:37:52.037Z,71.90
2019-02-28T02:39:53.732Z,71.90
2019-02-28T02:41:55.489Z,71.57
2019-02-28T02:43:57.184Z,77.03
2019-02-28T02:45:58.982Z,62.87
2019-02-28T02:48:05.218Z,68.97
2019-02-28T02:50:04.740Z,76.17
2019-02-28T02:52:06.403Z,70.17
2019-02-28T02:54:08.098Z,76.17
2019-02-28T02:56:09.769Z,80.53
2019-02-28T02:58:11.454Z,79.50
2019-02-28T03:00:15.072Z,77.60
2019-02-28T03:02:17.106Z,76.73
2019-02-28T03:04:22.858Z,90.73
2019-02-28T03:06:22.358Z,82.23
2019-02-28T03:08:24.288Z,74.67
2019-02-28T03:10:25.968Z,77.93
2019-02-28T03:12:31.128Z,76.43
2019-02-28T03:14:31.226Z,74.07
2019-02-28T03:16:33.260Z,81.83
2019-02-28T03:18:36.481Z,90.63
2019-02-28T03:20:41.315Z,92.57
2019-02-28T03:22:42.092Z,92.23
2019-02-28T03:24:50.435Z,96.20
2019-02-28T03:26:47.326Z,99.03
2019-02-28T03:28:49.010Z,95.13
2019-02-28T03:30:50.694Z,101.47
2019-02-28T03:32:52.391Z,96.63
2019-02-28T03:34:58.274Z,88.27
2019-02-28T03:36:57.873Z,96.07
2019-02-28T03:38:59.837Z,97.37
2019-02-28T03:41:01.505Z,97.20
2019-02-28T03:43:06.661Z,109.73
2019-02-28T03:45:07.201Z,89.73
2019-02-28T03:47:08.881Z,96.93
2019-02-28T03:49:11.556Z,88.30
2019-02-28T03:51:14.188Z,94.93
2019-02-28T03:53:19.979Z,91.40
2019-02-28T03:55:20.518Z,83.33
2019-02-28T03:57:27.973Z,105.60
2019-02-28T03:59:25.783Z,92.53
2019-02-28T04:01:27.451Z,96.20
2019-02-28T04:03:33.447Z,92.80
2019-02-28T04:05:32.713Z,95.07
2019-02-28T04:07:34.779Z,90.50
2019-02-28T04:09:43.781Z,94.07
2019-02-28T04:11:40.434Z,88.80
2019-02-28T04:13:42.145Z,102.57
2019-02-28T04:16:01.421Z,95.60
2019-02-28T04:17:47.609Z,93.13
2019-02-28T04:19:49.717Z,97.20
2019-02-28T04:21:51.390Z,96.30
2019-02-28T04:23:53.102Z,107.53
2019-02-28T04:25:56.849Z,94.03
2019-02-28T04:27:58.873Z,101.60
2019-02-28T04:30:06.583Z,99.00
2019-02-28T04:32:04.149Z,105.30
2019-02-28T04:34:05.837Z,96.30
2019-02-28T04:36:07.772Z,95.73
2019-02-28T04:38:09.469Z,100.63
2019-02-28T04:40:11.514Z,106.67
2019-02-28T04:42:13.275Z,95.13
2019-02-28T04:44:15.332Z,99.13
2019-02-28T04:46:18.799Z,108.80
2019-02-28T04:48:20.493Z,105.07
2019-02-28T04:50:22.153Z,112.63
2019-02-28T04:52:23.825Z,114.67
2019-02-28T04:54:27.824Z,110.73
2019-02-28T04:56:29.089Z,124.90
2019-02-28T04:58:30.770Z,108.97
2019-02-28T05:00:32.450Z,107.77
2019-02-28T05:02:34.121Z,106.93
2019-02-28T05:04:36.315Z,104.80
2019-02-28T05:06:38.771Z,110.93
2019-02-28T05:08:40.461Z,109.40
2019-02-28T05:10:42.133Z,113.00
2019-02-28T05:12:43.829Z,106.60
2019-02-28T05:14:45.534Z,113.63
2019-02-28T05:16:47.739Z,108.97
2019-02-28T05:18:50.194Z,116.53
2019-02-28T05:20:51.906Z,125.83
2019-02-28T05:22:53.689Z,118.67
2019-02-28T05:24:55.399Z,107.87
2019-02-28T05:27:00.104Z,110.50
2019-02-28T05:29:01.030Z,129.60
2019-02-28T05:31:02.713Z,114.40
2019-02-28T05:33:06.605Z,124.17
2019-02-28T05:35:07.997Z,115.93
2019-02-28T05:37:12.482Z,113.30
2019-02-28T05:39:13.490Z,133.90
2019-02-28T05:41:16.019Z,113.97
2019-02-28T05:43:18.025Z,120.33
2019-02-28T05:45:19.742Z,132.57
2019-02-28T05:47:21.729Z,111.90
2019-02-28T05:49:24.021Z,123.87
2019-02-28T05:51:25.981Z,127.83
2019-02-28T05:53:27.677Z,116.50
2019-02-28T05:55:29.709Z,132.53
2019-02-28T05:57:31.405Z,119.33
2019-02-28T05:59:33.092Z,109.53
2019-02-28T06:01:34.769Z,118.90
2019-02-28T06:03:36.461Z,129.07
2019-02-28T06:05:38.987Z,117.30
2019-02-28T06:07:41.041Z,115.93
2019-02-28T06:09:45.571Z,125.53
2019-02-28T06:11:46.294Z,135.80
2019-02-28T06:13:49.618Z,118.03
2019-02-28T06:15:51.605Z,118.10
2019-02-28T06:17:55.043Z,131.47
2019-02-28T06:19:56.862Z,130.67
2019-02-28T06:21:59.460Z,127.10
2019-02-28T06:24:02.114Z,114.03
2019-02-28T06:26:03.794Z,114.87
2019-02-28T06:28:05.460Z,126.10
2019-02-28T06:30:08.838Z,122.37
2019-02-28T06:32:13.562Z,127.30
2019-02-28T06:34:15.103Z,126.70
2019-02-28T06:36:17.105Z,118.07
2019-02-28T06:38:19.220Z,124.30
2019-02-28T06:40:21.806Z,125.90
2019-02-28T06:42:23.761Z,131.67
2019-02-28T06:44:45.104Z,123.87
2019-02-28T06:46:46.809Z,121.87
2019-02-28T06:48:48.480Z,121.83
2019-02-28T06:50:50.163Z,117.77
2019-02-28T06:52:52.093Z,112.30
2019-02-28T06:54:54.371Z,130.00
2019-02-28T06:56:56.521Z,129.27
2019-02-28T06:58:58.442Z,119.67
2019-02-28T07:01:00.140Z,122.50
2019-02-28T07:03:03.417Z,127.33
2019-02-28T07:05:05.531Z,115.90
2019-02-28T07:07:07.451Z,121.97
2019-02-28T07:09:11.101Z,123.07
2019-02-28T07:11:12.793Z,118.67
2019-02-28T07:13:14.476Z,126.63
2019-02-28T07:15:16.487Z,120.70
2019-02-28T07:17:18.169Z,119.80
2019-02-28T07:19:19.841Z,123.33
2019-02-28T07:21:21.877Z,131.20
2019-02-28T07:23:23.549Z,116.30
2019-02-28T07:25:25.236Z,104.43
2019-02-28T07:27:29.712Z,129.63
2019-02-28T07:29:32.053Z,129.47
2019-02-28T07:31:34.115Z,119.00
2019-02-28T07:33:35.897Z,122.27
2019-02-28T07:35:37.617Z,123.43
2019-02-28T07:37:39.289Z,118.60
2019-02-28T07:39:41.485Z,121.80
2019-02-28T07:41:43.153Z,118.37
2019-02-28T07:43:46.120Z,120.33
2019-02-28T07:45:48.437Z,116.57
2019-02-28T07:47:52.716Z,109.67
2019-02-28T07:49:53.981Z,121.90
2019-02-28T07:51:56.962Z,126.07
2019-02-28T07:54:01.430Z,113.80
2019-02-28T07:56:03.788Z,122.00
2019-02-28T07:58:06.428Z,111.37
2019-02-28T08:00:17.164Z,125.30
2019-02-28T08:02:15.493Z,118.93
2019-02-28T08:04:18.360Z,118.67
2019-02-28T08:06:20.749Z,119.60
2019-02-28T08:08:23.455Z,117.73
2019-02-28T08:10:25.989Z,126.80
2019-02-28T08:12:30.865Z,119.47
2019-02-28T08:14:31.223Z,125.10
2019-02-28T08:16:34.024Z,130.23
2019-02-28T08:18:36.469Z,119.37
2019-02-28T08:20:38.369Z,121.97
2019-02-28T08:22:40.309Z,123.17
2019-02-28T08:24:42.258Z,117.63
2019-02-28T08:26:43.934Z,132.17
2019-02-28T08:28:46.085Z,112.60
2019-02-28T08:30:47.766Z,130.00
2019-02-28T08:32:49.445Z,131.87
2019-02-28T08:34:51.101Z,122.53
2019-02-28T08:36:52.781Z,132.43
2019-02-28T08:38:54.445Z,122.07
2019-02-28T08:40:56.109Z,123.07
2019-02-28T08:42:57.787Z,119.10
2019-02-28T08:44:59.455Z,134.50
2019-02-28T08:47:01.133Z,137.40
2019-02-28T08:49:06.259Z,126.37
2019-02-28T08:51:06.445Z,131.97
2019-02-28T08:53:08.207Z,125.77
2019-02-28T08:55:11.463Z,121.00
2019-02-28T08:57:13.146Z,120.20
2019-02-28T08:59:18.500Z,124.93
2019-02-28T09:01:18.381Z,135.17
2019-02-28T09:03:20.067Z,119.77
2019-02-28T09:05:25.467Z,127.77
2019-02-28T09:07:25.333Z,124.63
2019-02-28T09:09:27.013Z,133.00
2019-02-28T09:11:28.670Z,133.20
2019-02-28T09:13:30.345Z,141.60
2019-02-28T09:15:32.037Z,127.30
2019-02-28T09:17:33.801Z,127.43
2019-02-28T09:19:36.145Z,134.77
2019-02-28T09:21:38.948Z,128.10
2019-02-28T09:23:40.621Z,129.37
2019-02-28T09:25:42.290Z,113.57
2019-02-28T09:27:43.970Z,124.77
2019-02-28T09:29:45.646Z,127.23
2019-02-28T09:31:47.317Z,118.73
2019-02-28T09:33:49.317Z,123.20
2019-02-28T09:35:50.985Z,117.53
2019-02-28T09:37:52.677Z,122.10
2019-02-28T09:39:54.985Z,124.20
2019-02-28T09:41:57.018Z,109.20
2019-02-28T09:44:00.294Z,115.00
2019-02-28T09:46:02.259Z,119.47
2019-02-28T09:48:03.924Z,127.40
2019-02-28T09:50:07.655Z,125.33
2019-02-28T09:52:09.437Z,125.90
2019-02-28T09:54:11.145Z,118.87
2019-02-28T09:56:12.814Z,123.70
2019-02-28T09:58:14.491Z,119.30
2019-02-28T10:00:17.089Z,109.70
2019-02-28T10:02:18.757Z,129.03
2019-02-28T10:04:20.437Z,126.23
2019-02-28T10:06:22.101Z,114.03
2019-02-28T10:08:23.798Z,119.87
2019-02-28T10:10:25.480Z,126.43
2019-02-28T10:12:27.409Z,113.93
2019-02-28T10:14:29.770Z,118.27
2019-02-28T10:16:31.540Z,119.27
2019-02-28T10:18:35.602Z,113.47
2019-02-28T10:20:36.825Z,111.30
2019-02-28T10:22:38.494Z,105.37
2019-02-28T10:24:40.496Z,118.37
2019-02-28T10:26:42.262Z,119.40
2019-02-28T10:28:43.945Z,111.67
2019-02-28T10:30:47.229Z,114.80
2019-02-28T10:32:49.205Z,109.40
2019-02-28T10:34:50.906Z,125.07
2019-02-28T10:36:52.981Z,127.43
2019-02-28T10:38:54.654Z,127.03
2019-02-28T10:40:56.345Z,117.53
2019-02-28T10:42:58.010Z,111.73
2019-02-28T10:44:59.997Z,134.67
2019-02-28T10:47:01.699Z,112.83
2019-02-28T10:49:03.429Z,112.30
2019-02-28T10:51:12.826Z,119.47
2019-02-28T10:53:08.837Z,120.63
2019-02-28T10:55:10.935Z,112.97
2019-02-28T10:57:12.593Z,116.53
2019-02-28T10:59:14.301Z,111.40
2019-02-28T11:01:17.069Z,115.67
2019-02-28T11:03:18.838Z,112.23
2019-02-28T11:05:22.621Z,118.63
2019-02-28T11:07:24.289Z,129.80
2019-02-28T11:09:26.071Z,118.10
2019-02-28T11:11:27.741Z,129.23
2019-02-28T11:13:31.989Z,108.93
2019-02-28T11:15:33.109Z,118.10
2019-02-28T11:17:34.774Z,116.73
2019-02-28T11:19:36.478Z,116.40
2019-02-28T11:21:38.141Z,107.00
2019-02-28T11:23:39.819Z,121.60
2019-02-28T11:25:41.686Z,107.80
2019-02-28T11:27:43.382Z,120.73
2019-02-28T11:29:45.341Z,105.63
2019-02-28T11:31:47.209Z,114.57
2019-02-28T11:33:49.149Z,116.23
2019-02-28T11:35:50.830Z,128.47
2019-02-28T11:37:52.616Z,115.57
2019-02-28T11:39:54.323Z,110.03
2019-02-28T11:41:56.100Z,101.93
2019-02-28T11:43:57.857Z,105.63
2019-02-28T11:46:00.746Z,120.43
2019-02-28T11:48:04.014Z,114.60
2019-02-28T11:50:07.575Z,116.53
2019-02-28T11:52:09.273Z,118.07
2019-02-28T11:54:12.282Z,115.10
2019-02-28T11:56:14.516Z,100.17
2019-02-28T11:58:17.705Z,120.20
2019-02-28T12:00:21.811Z,111.27
2019-02-28T12:02:23.485Z,114.43
2019-02-28T12:04:25.165Z,113.70
2019-02-28T12:06:26.832Z,115.10
2019-02-28T12:08:28.493Z,127.20
2019-02-28T12:10:30.197Z,112.30
2019-02-28T12:12:31.861Z,119.70
2019-02-28T12:14:33.803Z,108.37
2019-02-28T12:16:35.557Z,112.30
2019-02-28T12:18:40.027Z,102.60
2019-02-28T12:20:40.825Z,122.87
2019-02-28T12:22:43.985Z,120.30
2019-02-28T12:24:46.094Z,107.97
2019-02-28T12:26:49.418Z,117.13
2019-02-28T12:28:51.330Z,118.03
2019-02-28T12:30:53.021Z,114.83
2019-02-28T12:32:54.688Z,120.83
2019-02-28T12:34:56.369Z,116.43
2019-02-28T12:36:59.865Z,121.37
2019-02-28T12:39:02.294Z,120.03
2019-02-28T12:41:04.730Z,116.60
2019-02-28T12:43:08.640Z,119.70
2019-02-28T12:45:13.077Z,117.03
2019-02-28T12:47:15.217Z,121.87
2019-02-28T12:49:21.738Z,117.90
2019-02-28T12:51:20.885Z,115.93
2019-02-28T12:53:25.236Z,130.20
2019-02-28T12:55:26.362Z,111.00
2019-02-28T12:57:28.138Z,110.67
2019-02-28T12:59:29.905Z,113.63
2019-02-28T13:01:33.088Z,121.57
2019-02-28T13:03:35.157Z,126.37
2019-02-28T13:05:36.841Z,124.90
2019-02-28T13:07:38.510Z,118.30
2019-02-28T13:09:40.190Z,130.63
2019-02-28T13:11:41.953Z,123.50
2019-02-28T13:13:43.621Z,118.20
2019-02-28T13:15:45.732Z,108.57
2019-02-28T13:17:49.169Z,120.60
2019-02-28T13:19:53.154Z,114.33
2019-02-28T13:21:54.422Z,115.70
2019-02-28T13:23:56.185Z,114.67
2019-02-28T13:26:00.014Z,105.37
2019-02-28T13:28:01.877Z,109.53
2019-02-28T13:30:05.479Z,112.60
2019-02-28T13:32:09.095Z,109.47
2019-02-28T13:34:10.858Z,122.23
2019-02-28T13:36:13.004Z,106.27
2019-02-28T13:38:19.079Z,113.37
2019-02-28T13:40:18.607Z,118.97
2019-02-28T13:42:20.276Z,116.70
2019-02-28T13:44:21.965Z,107.43
2019-02-28T13:46:23.649Z,114.63
2019-02-28T13:48:26.333Z,108.00
2019-02-28T13:50:28.918Z,98.20
2019-02-28T13:52:30.608Z,100.67
2019-02-28T13:54:32.383Z,113.43
2019-02-28T13:56:34.316Z,105.70
2019-02-28T13:58:36.057Z,101.00
2019-02-28T14:00:43.844Z,107.70
2019-02-28T14:02:41.401Z,115.43
2019-02-28T14:04:43.071Z,114.13
2019-02-28T14:06:44.745Z,120.47
2019-02-28T14:08:47.795Z,106.03
2019-02-28T14:10:49.653Z,125.73
2019-02-28T14:12:53.109Z,106.63
2019-02-28T14:14:55.350Z,116.63
2019-02-28T14:16:58.378Z,107.73
2019-02-28T14:19:00.582Z,125.87
2019-02-28T14:21:03.180Z,110.67
2019-02-28T14:23:05.845Z,121.90
2019-02-28T14:25:07.562Z,112.10
2019-02-28T14:27:09.234Z,102.27
2019-02-28T14:29:11.719Z,99.03
2019-02-28T14:31:13.538Z,101.07
2019-02-28T14:33:16.089Z,100.33
2019-02-28T14:35:22.730Z,101.37
2019-02-28T14:37:23.349Z,90.17
2019-02-28T14:39:25.005Z,118.90
2019-02-28T14:41:27.963Z,94.63
2019-02-28T14:43:30.241Z,102.03
2019-02-28T14:45:32.157Z,108.43
2019-02-28T14:47:33.822Z,113.10
2019-02-28T14:49:35.490Z,97.00
2019-02-28T14:51:37.173Z,94.10
2019-02-28T14:53:38.838Z,112.37
2019-02-28T14:55:40.524Z,113.80
2019-02-28T14:57:42.362Z,95.60
2019-02-28T14:59:44.055Z,112.30
2019-02-28T15:01:46.050Z,104.17
2019-02-28T15:03:47.976Z,103.23
2019-02-28T15:05:52.394Z,106.57
2019-02-28T15:07:53.249Z,102.43
2019-02-28T15:09:54.913Z,109.30
2019-02-28T15:11:56.598Z,111.67
2019-02-28T15:13:58.269Z,101.23
2019-02-28T15:15:59.954Z,116.63
2019-02-28T15:18:01.618Z,104.97
2019-02-28T15:20:03.569Z,114.63
2019-02-28T15:22:05.250Z,94.57
2019-02-28T15:24:08.728Z,103.37
2019-02-28T15:26:10.489Z,113.10
2019-02-28T15:28:13.882Z,106.50
2019-02-28T15:30:35.434Z,116.47
2019-02-28T15:32:37.144Z,113.83
2019-02-28T15:34:41.103Z,119.70
2019-02-28T15:36:42.675Z,117.63
2019-02-28T15:38:44.748Z,102.97
2019-02-28T15:40:47.397Z,105.67
2019-02-28T15:42:49.102Z,117.33
2019-02-28T15:44:50.885Z,118.30
2019-02-28T15:46:52.566Z,107.93
2019-02-28T15:48:54.234Z,109.43
2019-02-28T15:50:56.170Z,124.30
2019-02-28T15:52:57.974Z,109.60
2019-02-28T15:55:02.203Z,102.17
2019-02-28T15:57:03.330Z,115.83
2019-02-28T15:59:04.997Z,114.33
2019-02-28T16:01:06.666Z,114.00
2019-02-28T16:03:08.347Z,117.43
2019-02-28T16:05:10.024Z,125.33
2019-02-28T16:07:11.821Z,123.67
2019-02-28T16:09:14.932Z,115.93
2019-02-28T16:11:16.606Z,122.40
2019-02-28T16:13:18.518Z,125.43
2019-02-28T16:15:20.213Z,124.00
2019-02-28T16:17:21.906Z,119.93
2019-02-28T16:19:23.570Z,121.83
2019-02-28T16:21:25.279Z,115.40
2019-02-28T16:23:28.863Z,113.00
2019-02-28T16:25:31.569Z,117.53
2019-02-28T16:27:33.265Z,119.40
2019-02-28T16:29:34.950Z,111.53
2019-02-28T16:31:38.543Z,112.10
2019-02-28T16:33:40.214Z,131.93
2019-02-28T16:35:41.981Z,114.60
2019-02-28T16:37:43.682Z,122.53
2019-02-28T16:39:45.377Z,115.03
2019-02-28T16:41:47.366Z,112.33
2019-02-28T16:43:52.225Z,116.63
2019-02-28T16:45:52.938Z,111.67
2019-02-28T16:47:55.712Z,111.50
2019-02-28T16:49:58.645Z,111.80
2019-02-28T16:52:02.629Z,113.37
2019-02-28T16:54:03.913Z,125.40
2019-02-28T16:56:06.379Z,119.50
2019-02-28T16:58:08.358Z,118.13
2019-02-28T17:00:10.048Z,112.57
2019-02-28T17:02:12.030Z,122.23
2019-02-28T17:04:17.183Z,133.97
2019-02-28T17:06:17.841Z,112.23
2019-02-28T17:08:19.757Z,124.67
2019-02-28T17:10:26.228Z,130.03
2019-02-28T17:12:50.237Z,128.27
2019-02-28T17:14:52.005Z,126.00
2019-02-28T17:17:01.378Z,127.60
2019-02-28T17:19:03.057Z,129.47
2019-02-28T17:21:04.734Z,113.80
2019-02-28T17:23:06.417Z,114.03
2019-02-28T17:25:08.101Z,121.63
2019-02-28T17:27:27.981Z,132.33
2019-02-28T17:29:43.757Z,118.37
2019-02-28T17:31:48.207Z,133.17
2019-02-28T17:33:51.189Z,114.63
2019-02-28T17:35:53.753Z,136.97
2019-02-28T17:37:59.831Z,119.90
2019-02-28T17:39:59.010Z,113.17
2019-02-28T17:42:08.257Z,124.17
2019-02-28T17:44:26.989Z,127.73
2019-02-28T17:46:28.665Z,123.83
2019-02-28T17:49:17.052Z,131.20
2019-02-28T17:51:35.101Z,126.43
2019-02-28T17:54:17.360Z,121.90
2019-02-28T17:56:44.745Z,128.70
2019-02-28T17:59:11.621Z,129.83
2019-02-28T18:01:35.181Z,130.67
2019-02-28T18:04:12.477Z,122.77
2019-02-28T18:07:11.689Z,128.73
2019-02-28T18:09:38.761Z,129.30
2019-02-28T18:12:40.659Z,138.13
2019-02-28T18:15:08.859Z,133.80
2019-02-28T18:17:36.486Z,125.47
2019-02-28T18:20:03.729Z,126.73
2019-02-28T18:22:52.037Z,133.20
2019-02-28T18:25:22.142Z,113.80
2019-02-28T18:28:11.744Z,135.17
2019-02-28T18:30:49.997Z,137.97
2019-02-28T18:32:51.686Z,135.53
2019-02-28T18:34:56.265Z,137.50
2019-02-28T18:36:56.909Z,131.83
2019-02-28T18:38:58.610Z,149.47
2019-02-28T18:41:05.557Z,131.47
2019-02-28T18:43:03.880Z,132.50
2019-02-28T18:45:06.397Z,131.70
2019-02-28T18:47:08.066Z,129.97
2019-02-28T18:49:09.742Z,128.70
2019-02-28T18:51:11.434Z,142.40
2019-02-28T18:53:13.098Z,125.47
2019-02-28T18:55:14.789Z,132.83
2019-02-28T18:57:16.456Z,129.13
2019-02-28T18:59:18.130Z,123.00
2019-02-28T19:01:19.801Z,117.17
2019-02-28T19:03:21.496Z,142.50
2019-02-28T19:05:23.260Z,153.97
2019-02-28T19:07:24.965Z,144.10
2019-02-28T19:09:26.900Z,129.33
2019-02-28T19:11:28.877Z,133.40
2019-02-28T19:13:30.781Z,141.33
2019-02-28T19:15:32.457Z,135.77
2019-02-28T19:17:34.405Z,133.40
2019-02-28T19:19:36.405Z,129.60
2019-02-28T19:21:38.072Z,166.10
2019-02-28T19:23:39.996Z,142.90
2019-02-28T19:25:41.693Z,140.27
2019-02-28T19:27:43.396Z,139.50
2019-02-28T19:29:45.069Z,141.60
2019-02-28T19:31:46.754Z,142.57
2019-02-28T19:33:48.425Z,159.07
2019-02-28T19:35:52.053Z,155.13
2019-02-28T19:37:53.722Z,151.33
2019-02-28T19:39:55.405Z,143.87
2019-02-28T19:41:57.427Z,154.03
2019-02-28T19:43:59.092Z,183.17
2019-02-28T19:46:00.794Z,163.33
2019-02-28T19:48:02.515Z,158.33
2019-02-28T19:50:05.400Z,164.90
2019-02-28T19:52:07.097Z,181.87
2019-02-28T19:54:09.248Z,154.30
2019-02-28T19:56:11.037Z,172.33
2019-02-28T19:58:12.805Z,158.67
2019-02-28T20:00:14.646Z,198.00
2019-02-28T20:02:16.318Z,177.80
2019-02-28T20:04:17.989Z,205.07
2019-02-28T20:06:19.814Z,203.07
2019-02-28T20:08:21.816Z,200.90
2019-02-28T20:10:23.523Z,208.33
2019-02-28T20:12:25.199Z,209.17
2019-02-28T20:14:27.226Z,220.40
2019-02-28T20:16:28.906Z,217.03
2019-02-28T20:18:30.578Z,230.17
2019-02-28T20:20:33.128Z,251.03
2019-02-28T20:22:34.850Z,231.90
2019-02-28T20:24:37.129Z,227.60
2019-02-28T20:26:39.121Z,233.10
2019-02-28T20:28:40.872Z,237.57
2019-02-28T20:30:42.546Z,249.93
2019-02-28T20:32:44.278Z,219.33
2019-02-28T20:34:45.946Z,227.23
2019-02-28T20:36:47.633Z,236.67
2019-02-28T20:38:49.719Z,243.53
2019-02-28T20:40:52.047Z,256.20
2019-02-28T20:42:54.149Z,241.13
2019-02-28T20:44:55.970Z,259.37
2019-02-28T20:46:59.177Z,246.20
2019-02-28T20:49:00.849Z,229.10
2019-02-28T20:51:02.766Z,234.97
2019-02-28T20:53:05.441Z,227.63
2019-02-28T20:55:07.569Z,206.93
2019-02-28T20:57:09.249Z,217.60
2019-02-28T20:59:10.921Z,206.40
2019-02-28T21:01:12.606Z,198.20
2019-02-28T21:03:14.273Z,189.43
2019-02-28T21:05:16.269Z,190.23
2019-02-28T21:07:17.973Z,190.53
2019-02-28T21:09:19.637Z,178.03
2019-02-28T21:11:21.329Z,191.30
2019-02-28T21:13:23.031Z,171.77
2019-02-28T21:15:24.961Z,172.00
2019-02-28T21:17:29.642Z,174.47
2019-02-28T21:19:30.459Z,171.80
2019-02-28T21:21:32.242Z,155.93
2019-02-28T21:23:33.917Z,182.77
2019-02-28T21:25:35.589Z,160.47
2019-02-28T21:27:37.268Z,168.77
2019-02-28T21:29:39.324Z,158.03
2019-02-28T21:31:41.009Z,162.27
2019-02-28T21:33:42.705Z,148.10
2019-02-28T21:35:44.405Z,150.90
2019-02-28T21:37:46.105Z,159.47
2019-02-28T21:39:47.777Z,148.73
2019-02-28T21:41:49.453Z,144.90
2019-02-28T21:43:51.150Z,140.87
2019-02-28T21:45:52.914Z,153.43
2019-02-28T21:47:54.618Z,160.27
2019-02-28T21:49:56.273Z,149.47
2019-02-28T21:51:57.940Z,146.83
2019-02-28T21:53:59.619Z,133.90
2019-02-28T21:56:01.406Z,133.80
2019-02-28T21:58:03.102Z,138.63
2019-02-28T22:00:08.665Z,144.47
2019-02-28T22:02:10.335Z,132.50
2019-02-28T22:04:12.015Z,131.37
2019-02-28T22:06:13.678Z,140.37
2019-02-28T22:08:15.353Z,133.70
2019-02-28T22:10:17.216Z,142.30
2019-02-28T22:12:19.221Z,144.80
2019-02-28T22:14:21.273Z,125.83
2019-02-28T22:16:22.946Z,131.03
2019-02-28T22:18:24.626Z,128.10
2019-02-28T22:20:26.297Z,139.73
2019-02-28T22:22:27.974Z,141.17
2019-02-28T22:24:29.650Z,121.83
2019-02-28T22:26:31.304Z,115.10
2019-02-28T22:28:33.217Z,134.97
2019-02-28T22:30:58.350Z,127.13
2019-02-28T22:33:01.541Z,114.63
2019-02-28T22:35:19.345Z,122.43
2019-02-28T22:37:21.145Z,109.77
2019-02-28T22:39:22.841Z,106.03
2019-02-28T22:41:24.501Z,112.80
2019-02-28T22:43:26.160Z,108.87
2019-02-28T22:45:27.865Z,113.90
2019-02-28T22:47:29.535Z,115.30
2019-02-28T22:49:31.213Z,116.77
2019-02-28T22:51:32.898Z,113.83
2019-02-28T22:53:34.594Z,113.23
2019-02-28T22:55:36.281Z,105.57
2019-02-28T22:57:37.950Z,109.23
2019-02-28T22:59:39.922Z,99.30
2019-02-28T23:01:41.709Z,113.47
2019-02-28T23:03:43.386Z,119.10
2019-02-28T23:05:45.055Z,103.50
2019-02-28T23:07:46.744Z,118.00
2019-02-28T23:09:48.429Z,109.50
2019-02-28T23:11:50.097Z,133.23
2019-02-28T23:13:51.805Z,103.07
2019-02-28T23:15:53.493Z,104.80
2019-02-28T23:17:55.253Z,114.67
2019-02-28T23:19:56.941Z,110.90
2019-02-28T23:21:58.629Z,118.03
2019-02-28T23:24:00.325Z,116.37
2019-02-28T23:26:09.806Z,105.53
2019-02-28T23:28:13.948Z,111.90
2019-02-28T23:30:39.807Z,107.70
2019-02-28T23:33:03.033Z,117.93
2019-02-28T23:35:08.462Z,110.80
2019-02-28T23:37:10.461Z,109.07
2019-02-28T23:39:12.143Z,113.53
2019-02-28T23:41:14.701Z,122.90
2019-02-28T23:43:16.369Z,113.33
2019-02-28T23:45:18.045Z,115.30
2019-02-28T23:47:19.713Z,104.87
2019-02-28T23:49:21.397Z,110.23
2019-02-28T23:51:23.318Z,100.30
2019-02-28T23:53:24.977Z,100.47
2019-02-28T23:55:26.662Z,100.90
2019-02-28T23:57:28.325Z,110.43
2019-02-28T23:59:30.272Z,96.47
